< < Back
Terminal Aerodrome Forecast


Current Version              Previous Versions:   1  2  3  4  5  6  7  8  9  

Terminal Aerodrome Forecast

513
FTUS42 KILM 231100
TAFFLO
TAF
KFLO 231120Z 2312/2412 33006KT P6SM SKC
     FM231400 32008KT P6SM SKC
     FM232200 VRB03KT P6SM SKC=



Latest METAR

612
SAUS70 KWBC 241100 RRA
MTRFLO
METAR KFLO 241053Z 00000KT 10SM CLR 09/06 A3003 RMK AO2 SLP168
T00890056


USA.gov is the U.S. government's official web portal to all federal, state and local government web resources and services.